Terminal Aerodrome Forecast
Issued by NWS Spokane, WA

Home | Current Version | Previous Version | Text Only | Print | Product List | Glossary On
Versions: 1 2 3 4 5 6 7 8 9 10 11 12 13 14 15 16 17 18 19 20 21 22 23 24 25 26 27 28 29
000
FTUS46 KOTX 250358 AAB
TAFGEG
TAF AMD
KGEG 250358Z 2504/2524 24007KT P6SM SCT015 BKN035
     FM250800 20008KT P6SM BKN060
     FM251300 20011G15KT P6SM SCT008 BKN040
     FM252000 22017G23KT P6SM BKN050=

USA.gov is the U.S. government's official web portal to all federal, state and local government web resources and services.